Time;durP1;ratioP1;P1;durP2;ratioP2;P2;SDS_P1;SDS_P2;PMS_P1;PMS_P2;Temp;Humidity;BMP_temperature;BMP_pressure;BME280_temperature;BME280_humidity;BME280_pressure;Samples;Min_cycle;Max_cycle;Signal;HPM_P1;HPM_P2
2021/10/27 00:00:10;;;;;;;19.88;13.88;;;6.90;99.90;;;;;;4955338;28;20518;-69
2021/10/27 00:02:41;;;;;;;20.55;12.70;;;6.90;99.90;;;;;;4955385;28;20047;-68
2021/10/27 00:05:08;;;;;;;20.00;13.73;;;6.90;99.90;;;;;;4955089;28;20051;-67
2021/10/27 00:07:35;;;;;;;18.45;13.77;;;6.80;99.90;;;;;;4956372;28;20039;-67
2021/10/27 00:10:03;;;;;;;22.08;14.07;;;6.80;99.90;;;;;;4954457;28;20035;-68
2021/10/27 00:12:30;;;;;;;19.15;13.50;;;6.80;99.90;;;;;;4950717;28;20039;-67
2021/10/27 00:14:58;;;;;;;20.48;13.63;;;6.80;99.90;;;;;;4951579;28;20089;-67
2021/10/27 00:17:25;;;;;;;21.98;13.95;;;6.80;99.90;;;;;;4949592;28;20391;-67
2021/10/27 00:19:53;;;;;;;22.25;13.68;;;6.80;99.90;;;;;;4952537;28;20107;-67
2021/10/27 00:22:21;;;;;;;21.90;13.07;;;6.70;99.90;;;;;;4932901;29;20039;-67
2021/10/27 00:24:48;;;;;;;18.80;13.23;;;6.70;99.90;;;;;;4952373;28;20054;-67
2021/10/27 00:27:15;;;;;;;19.63;13.77;;;6.70;99.90;;;;;;4950002;28;20050;-67
2021/10/27 00:29:43;;;;;;;17.33;12.73;;;6.70;99.90;;;;;;4952046;28;20039;-67
2021/10/27 00:32:10;;;;;;;18.15;12.20;;;6.70;99.90;;;;;;4950953;29;20055;-67
2021/10/27 00:34:38;;;;;;;21.70;12.73;;;6.70;99.90;;;;;;4950374;29;20044;-67
2021/10/27 00:37:05;;;;;;;19.42;12.90;;;6.70;99.90;;;;;;4952094;29;20090;-67
2021/10/27 00:39:34;;;;;;;21.10;13.75;;;6.70;99.90;;;;;;4954579;28;20475;-67
2021/10/27 00:42:03;;;;;;;21.48;13.23;;;6.60;99.90;;;;;;4952261;28;20430;-67
2021/10/27 00:44:32;;;;;;;21.42;12.73;;;6.70;99.90;;;;;;4949259;28;20039;-67
2021/10/27 00:47:01;;;;;;;16.85;12.07;;;6.60;99.90;;;;;;4954281;28;20112;-67
2021/10/27 00:49:30;;;;;;;19.85;12.55;;;6.60;99.90;;;;;;4944902;29;20035;-67
2021/10/27 00:52:00;;;;;;;21.85;13.98;;;6.60;99.90;;;;;;4948870;28;20039;-67
2021/10/27 00:54:28;;;;;;;19.88;13.52;;;6.60;99.90;;;;;;4933225;29;20051;-67
2021/10/27 00:56:58;;;;;;;20.27;12.07;;;6.60;99.90;;;;;;4953461;28;20596;-67
2021/10/27 00:59:25;;;;;;;18.08;12.48;;;6.50;99.90;;;;;;4941049;29;20058;-67
2021/10/27 01:01:53;;;;;;;25.50;14.60;;;6.60;99.90;;;;;;4952397;28;20094;-67
2021/10/27 01:04:22;;;;;;;23.60;14.50;;;6.50;99.90;;;;;;4953228;28;20043;-67
2021/10/27 01:06:50;;;;;;;22.90;13.63;;;6.60;99.90;;;;;;4960523;28;20383;-67
2021/10/27 01:09:18;;;;;;;19.85;13.75;;;6.50;99.90;;;;;;4953440;29;20383;-67
2021/10/27 01:11:48;;;;;;;20.10;12.80;;;6.50;99.90;;;;;;4953362;29;20047;-67
2021/10/27 01:14:16;;;;;;;18.20;13.32;;;6.50;99.90;;;;;;4953030;29;20121;-67
2021/10/27 01:16:46;;;;;;;18.25;12.55;;;6.50;99.90;;;;;;4952415;28;20066;-67
2021/10/27 01:19:14;;;;;;;18.33;12.95;;;6.50;99.90;;;;;;4920566;29;20550;-67
2021/10/27 01:21:46;;;;;;;18.40;12.77;;;6.40;99.90;;;;;;4953493;28;20098;-67
2021/10/27 01:24:13;;;;;;;19.17;12.88;;;6.40;99.90;;;;;;4920391;29;20053;-67
2021/10/27 01:26:40;;;;;;;20.90;12.57;;;6.40;99.90;;;;;;4953546;28;20046;-67
2021/10/27 01:29:07;;;;;;;21.27;13.35;;;6.40;99.90;;;;;;4952720;28;20059;-67
2021/10/27 01:31:35;;;;;;;21.23;13.10;;;6.40;99.90;;;;;;4952955;28;20075;-67
2021/10/27 01:34:02;;;;;;;16.70;12.60;;;6.40;99.90;;;;;;4953395;29;20094;-67
2021/10/27 01:36:29;;;;;;;18.52;12.50;;;6.30;99.90;;;;;;4957135;28;20507;-67
2021/10/27 01:38:57;;;;;;;19.90;13.48;;;6.30;99.90;;;;;;4952509;28;20054;-67
2021/10/27 01:41:25;;;;;;;21.10;13.13;;;6.30;99.90;;;;;;4942711;28;20045;-67
2021/10/27 01:43:57;;;;;;;22.98;12.45;;;6.30;99.90;;;;;;4953244;28;20053;-67
2021/10/27 01:46:30;;;;;;;17.10;12.25;;;6.30;99.90;;;;;;4952304;29;20039;-67
2021/10/27 01:48:58;;;;;;;18.52;12.20;;;6.30;99.90;;;;;;4953674;28;20051;-67
2021/10/27 01:51:27;;;;;;;17.42;12.63;;;6.30;99.90;;;;;;4953067;28;20134;-68
2021/10/27 01:53:55;;;;;;;20.08;12.82;;;6.20;99.90;;;;;;4951151;28;20043;-67
2021/10/27 01:56:24;;;;;;;19.55;12.90;;;6.20;99.90;;;;;;4951355;28;20055;-67
2021/10/27 01:58:54;;;;;;;19.75;12.68;;;6.20;99.90;;;;;;4950726;29;20047;-67
2021/10/27 02:01:21;;;;;;;20.35;12.73;;;6.20;99.90;;;;;;4941475;29;20038;-67
2021/10/27 02:03:50;;;;;;;20.45;13.52;;;6.20;99.90;;;;;;4953022;29;20067;-67
2021/10/27 02:06:18;;;;;;;21.13;13.35;;;6.20;99.90;;;;;;4947001;28;20070;-67
2021/10/27 02:08:45;;;;;;;20.05;12.65;;;6.20;99.90;;;;;;4951037;28;20045;-67
2021/10/27 02:11:13;;;;;;;17.60;11.68;;;6.20;99.90;;;;;;4941024;29;20047;-67
2021/10/27 02:13:52;;;;;;;19.30;12.80;;;6.20;99.90;;;;;;4951428;29;20047;-67
2021/10/27 02:16:20;;;;;;;20.65;13.77;;;6.10;99.90;;;;;;4945843;29;20081;-67
2021/10/27 02:18:47;;;;;;;20.42;14.05;;;6.10;99.90;;;;;;4951920;28;20050;-67
2021/10/27 02:21:15;;;;;;;21.25;13.20;;;6.10;99.90;;;;;;4930221;29;20082;-67
2021/10/27 02:23:43;;;;;;;21.90;12.90;;;6.10;99.90;;;;;;4950827;28;20039;-67
2021/10/27 02:26:10;;;;;;;19.95;13.25;;;6.10;99.90;;;;;;4951113;28;20039;-67
2021/10/27 02:28:37;;;;;;;18.50;12.77;;;6.10;99.90;;;;;;4957027;28;20045;-67
2021/10/27 02:31:05;;;;;;;19.05;12.13;;;6.00;99.90;;;;;;4951427;28;20066;-67
2021/10/27 02:33:33;;;;;;;24.88;14.82;;;6.00;99.90;;;;;;4951630;29;20051;-67
2021/10/27 02:36:00;;;;;;;20.48;12.65;;;5.90;99.90;;;;;;4951846;29;20036;-67
2021/10/27 02:38:42;;;;;;;19.42;12.95;;;5.90;99.90;;;;;;4955358;28;20051;-67
2021/10/27 02:41:11;;;;;;;;;;;5.90;99.90;;;;;;4956375;29;20071;-67
2021/10/27 02:43:39;;;;;;;17.15;12.32;;;5.80;99.90;;;;;;4956509;28;19922;-68
2021/10/27 02:46:09;;;;;;;18.90;12.48;;;5.80;99.90;;;;;;4941926;29;20055;-67
2021/10/27 02:48:37;;;;;;;22.58;13.65;;;5.80;99.90;;;;;;4955691;28;20051;-68
2021/10/27 02:51:06;;;;;;;20.65;13.35;;;5.70;99.90;;;;;;4956016;28;20619;-68
2021/10/27 02:53:33;;;;;;;19.48;12.35;;;5.70;99.90;;;;;;4953293;29;20058;-67
2021/10/27 02:56:01;;;;;;;20.55;13.25;;;5.70;99.90;;;;;;4955387;29;20407;-68
2021/10/27 02:58:28;;;;;;;18.23;12.20;;;5.70;99.90;;;;;;4955774;29;20055;-68
2021/10/27 03:00:56;;;;;;;20.02;11.88;;;5.70;99.90;;;;;;4956254;28;20111;-68
2021/10/27 03:03:24;;;;;;;17.00;11.90;;;5.60;99.90;;;;;;4960391;28;20039;-68
2021/10/27 03:05:51;;;;;;;24.33;13.32;;;5.60;99.90;;;;;;4956330;29;20050;-68
2021/10/27 03:08:18;;;;;;;18.30;13.32;;;5.60;99.90;;;;;;4944559;29;20043;-67
2021/10/27 03:10:47;;;;;;;20.10;12.70;;;5.60;99.90;;;;;;4931612;29;20039;-68
2021/10/27 03:13:14;;;;;;;21.63;12.52;;;5.60;99.90;;;;;;4955745;28;20043;-68
2021/10/27 03:15:41;;;;;;;20.50;13.05;;;5.60;99.90;;;;;;4941032;29;20475;-68
2021/10/27 03:18:09;;;;;;;18.92;12.60;;;5.60;99.90;;;;;;4955545;28;20047;-68
2021/10/27 03:20:36;;;;;;;19.10;12.70;;;5.60;99.90;;;;;;4955617;29;20050;-68
2021/10/27 03:23:04;;;;;;;21.17;13.85;;;5.60;99.90;;;;;;4955170;28;20043;-68
2021/10/27 03:25:31;;;;;;;20.90;13.73;;;5.60;99.90;;;;;;4955360;29;20051;-68
2021/10/27 03:27:58;;;;;;;21.67;13.35;;;5.60;99.90;;;;;;4955199;28;20051;-68
2021/10/27 03:30:26;;;;;;;18.88;13.15;;;5.50;99.90;;;;;;4955986;29;20039;-68
2021/10/27 03:32:54;;;;;;;23.85;13.65;;;5.50;99.90;;;;;;4957195;28;20047;-68
2021/10/27 03:35:21;;;;;;;18.75;12.38;;;5.50;99.90;;;;;;4955938;29;20051;-68
2021/10/27 03:37:49;;;;;;;18.90;13.38;;;5.50;99.90;;;;;;4955758;29;20051;-68
2021/10/27 03:40:17;;;;;;;20.52;13.98;;;5.50;99.90;;;;;;4954846;28;20051;-68
2021/10/27 03:42:44;;;;;;;21.77;13.38;;;5.50;99.90;;;;;;4955639;28;20413;-68
2021/10/27 03:45:11;;;;;;;20.05;13.45;;;5.50;99.90;;;;;;4949216;29;20138;-68
2021/10/27 03:47:39;;;;;;;22.08;14.43;;;5.50;99.90;;;;;;4939085;28;20043;-68
2021/10/27 03:50:11;;;;;;;20.48;13.32;;;5.50;99.90;;;;;;4969376;28;20058;-68
2021/10/27 03:52:38;;;;;;;21.83;13.67;;;5.50;99.90;;;;;;4953539;29;20054;-68
2021/10/27 03:55:05;;;;;;;23.95;15.55;;;5.40;99.90;;;;;;4952137;29;20789;-68
2021/10/27 03:57:33;;;;;;;19.48;13.27;;;5.40;99.90;;;;;;4954689;28;20089;-68
2021/10/27 04:00:00;;;;;;;23.80;13.85;;;5.40;99.90;;;;;;4955923;28;20066;-68
2021/10/27 04:02:41;;;;;;;22.88;15.00;;;5.40;99.90;;;;;;4955468;28;20518;-67
2021/10/27 04:05:10;;;;;;;22.42;14.32;;;5.40;99.90;;;;;;4952881;29;20047;-68
2021/10/27 04:07:37;;;;;;;18.15;12.90;;;5.40;99.90;;;;;;4962256;28;20039;-68
2021/10/27 04:10:10;;;;;;;23.20;13.02;;;5.40;99.90;;;;;;4952535;28;20415;-68
2021/10/27 04:12:39;;;;;;;20.55;13.73;;;5.30;99.90;;;;;;4954377;29;20145;-68
2021/10/27 04:15:09;;;;;;;25.88;14.88;;;5.30;99.90;;;;;;4946632;28;20079;-68
2021/10/27 04:17:37;;;;;;;23.35;15.45;;;5.30;99.90;;;;;;4953869;29;20042;-67
2021/10/27 04:20:07;;;;;;;22.00;14.45;;;5.30;99.90;;;;;;4954587;29;20043;-67
2021/10/27 04:22:37;;;;;;;22.52;14.25;;;5.30;99.90;;;;;;4954979;29;20123;-67
2021/10/27 04:25:09;;;;;;;22.90;14.65;;;5.30;99.90;;;;;;4952095;29;20053;-67
2021/10/27 04:27:37;;;;;;;28.00;18.10;;;5.30;99.90;;;;;;4954042;28;20058;-67
2021/10/27 04:30:05;;;;;;;25.92;17.38;;;5.30;99.90;;;;;;4954422;28;20043;-67
2021/10/27 04:32:38;;;;;;;24.57;15.23;;;5.30;99.90;;;;;;4950932;28;20062;-67
2021/10/27 04:35:05;;;;;;;24.70;14.73;;;5.30;99.90;;;;;;4954173;28;20055;-67
2021/10/27 04:37:37;;;;;;;22.67;14.45;;;5.30;99.90;;;;;;4954112;29;20051;-67
2021/10/27 04:40:06;;;;;;;21.10;13.68;;;5.30;99.90;;;;;;4954735;29;20126;-67
2021/10/27 04:42:34;;;;;;;19.20;13.80;;;5.20;99.90;;;;;;4954191;28;20047;-67
2021/10/27 04:45:02;;;;;;;20.42;13.80;;;5.30;99.90;;;;;;4967072;28;20419;-67
2021/10/27 04:47:29;;;;;;;22.90;13.68;;;5.20;99.90;;;;;;4954657;28;20347;-67
2021/10/27 04:49:57;;;;;;;20.98;13.82;;;5.20;99.90;;;;;;4953868;28;20671;-67
2021/10/27 04:52:26;;;;;;;25.30;17.08;;;5.20;99.90;;;;;;4949011;28;20052;-68
2021/10/27 04:54:53;;;;;;;22.65;16.02;;;5.20;99.90;;;;;;4953390;28;20046;-67
2021/10/27 04:57:20;;;;;;;21.60;15.48;;;5.20;99.90;;;;;;4935521;29;20106;-67
2021/10/27 04:59:48;;;;;;;29.63;16.85;;;5.20;99.90;;;;;;4956664;28;20128;-67
2021/10/27 05:02:16;;;;;;;31.17;19.27;;;5.20;99.90;;;;;;4938263;29;20039;-67
2021/10/27 05:04:46;;;;;;;34.22;21.88;;;5.20;99.90;;;;;;4955736;28;20047;-67
2021/10/27 05:07:15;;;;;;;34.05;19.55;;;5.20;99.90;;;;;;4957134;28;20059;-67
2021/10/27 05:09:42;;;;;;;23.90;15.55;;;5.30;99.90;;;;;;4953710;28;20044;-67
2021/10/27 05:12:11;;;;;;;19.67;13.32;;;5.30;99.90;;;;;;4953897;28;20055;-67
2021/10/27 05:14:39;;;;;;;21.90;14.13;;;5.30;99.90;;;;;;4954797;28;20495;-67
2021/10/27 05:17:17;;;;;;;24.48;14.68;;;5.30;99.90;;;;;;4943870;28;20067;-67
2021/10/27 05:19:45;;;;;;;21.85;13.82;;;5.30;99.90;;;;;;4942517;29;20418;-67
2021/10/27 05:22:15;;;;;;;22.40;15.00;;;5.30;99.90;;;;;;4947910;29;20122;-67
2021/10/27 05:24:43;;;;;;;25.92;14.63;;;5.30;99.90;;;;;;4948928;28;20049;-66
2021/10/27 05:27:11;;;;;;;20.88;13.90;;;5.30;99.90;;;;;;4948558;28;20047;-68
2021/10/27 05:29:39;;;;;;;23.67;15.05;;;5.30;99.90;;;;;;4948727;28;20047;-67
2021/10/27 05:32:07;;;;;;;25.02;15.10;;;5.30;99.90;;;;;;4947394;28;20074;-67
2021/10/27 05:34:34;;;;;;;23.33;14.38;;;5.30;99.90;;;;;;4953547;28;20446;-67
2021/10/27 05:37:02;;;;;;;24.40;14.45;;;5.30;99.90;;;;;;4942744;29;20047;-67
2021/10/27 05:39:30;;;;;;;24.75;15.75;;;5.30;99.90;;;;;;4939650;29;20047;-67
2021/10/27 05:41:57;;;;;;;27.30;14.80;;;5.30;99.90;;;;;;4935108;29;20056;-69
2021/10/27 05:44:24;;;;;;;24.05;14.60;;;5.20;99.90;;;;;;4949690;29;20493;-68
2021/10/27 05:46:52;;;;;;;23.17;13.80;;;5.20;99.90;;;;;;4947550;29;20067;-67
2021/10/27 05:49:36;;;;;;;19.63;13.98;;;5.20;99.90;;;;;;4950164;28;20047;-68
2021/10/27 05:55:03;;;;;;;22.02;14.80;;;5.20;99.90;;;;;;4952450;28;20035;-68
2021/10/27 05:57:54;;;;;;;21.88;14.77;;;5.20;99.90;;;;;;4916222;29;20047;-67
2021/10/27 06:00:22;;;;;;;22.98;14.30;;;5.20;99.90;;;;;;4954778;28;20117;-68
2021/10/27 06:02:49;;;;;;;25.60;15.23;;;5.20;99.90;;;;;;4958468;28;20035;-68
2021/10/27 06:05:16;;;;;;;25.42;15.48;;;5.20;99.90;;;;;;4951887;29;20130;-68
2021/10/27 06:07:44;;;;;;;28.20;16.15;;;5.20;99.90;;;;;;4941688;28;20054;-67
2021/10/27 06:10:18;;;;;;;23.70;15.27;;;5.20;99.90;;;;;;4942240;29;20063;-68
2021/10/27 06:12:48;;;;;;;24.98;15.43;;;5.20;99.90;;;;;;4945732;29;20054;-68
2021/10/27 06:15:18;;;;;;;26.98;15.48;;;5.20;99.90;;;;;;4959677;28;20069;-68
2021/10/27 06:17:46;;;;;;;23.48;14.85;;;5.20;99.90;;;;;;4932911;29;20066;-68
2021/10/27 06:20:14;;;;;;;24.92;15.52;;;5.30;99.90;;;;;;4934348;29;20098;-68
2021/10/27 06:22:43;;;;;;;22.70;15.02;;;5.30;99.90;;;;;;4939113;29;20040;-68
2021/10/27 06:25:12;;;;;;;24.02;14.18;;;5.30;99.90;;;;;;4939483;29;20040;-68
2021/10/27 06:27:44;;;;;;;25.33;14.48;;;5.40;99.90;;;;;;4959673;28;20049;-68
2021/10/27 06:30:16;;;;;;;22.80;14.63;;;5.40;99.90;;;;;;4948172;28;20075;-68
2021/10/27 06:35:15;;;;;;;21.63;13.82;;;5.50;99.90;;;;;;4948113;29;20110;-68
2021/10/27 06:38:45;;;;;;;23.85;14.15;;;5.60;99.90;;;;;;4956293;28;20039;-68
2021/10/27 06:46:30;;;;;;;20.88;14.02;;;5.80;99.90;;;;;;4951817;28;20040;-68
2021/10/27 06:48:57;;;;;;;21.08;13.07;;;5.90;99.90;;;;;;4951141;29;20061;-68
2021/10/27 06:51:26;;;;;;;20.20;12.98;;;5.90;99.90;;;;;;4952376;28;20047;-68
2021/10/27 06:53:53;;;;;;;19.83;13.38;;;6.00;99.90;;;;;;4948495;28;20070;-68
2021/10/27 06:56:22;;;;;;;21.05;12.93;;;6.10;99.90;;;;;;4952359;28;20569;-68
2021/10/27 07:17:27;;;;;;;15.45;11.00;;;6.60;99.90;;;;;;4891673;29;20138;-67
2021/10/27 07:19:54;;;;;;;14.85;11.00;;;6.70;99.90;;;;;;4891903;29;20104;-67
2021/10/27 07:22:22;;;;;;;17.67;12.02;;;6.80;99.90;;;;;;4893003;29;20056;-67
2021/10/27 07:24:49;;;;;;;15.88;11.73;;;6.90;99.90;;;;;;4896952;29;20436;-68
2021/10/27 07:27:18;;;;;;;16.23;12.05;;;7.00;99.90;;;;;;4883149;29;20051;-68
2021/10/27 07:29:46;;;;;;;17.02;11.50;;;7.10;99.90;;;;;;4902293;29;20041;-68
2021/10/27 07:32:15;;;;;;;16.77;11.65;;;7.10;99.90;;;;;;4893919;29;20045;-68
2021/10/27 07:34:55;;;;;;;21.98;12.15;;;7.20;99.90;;;;;;4892533;29;20040;-68
2021/10/27 07:43:05;;;;;;;16.17;11.93;;;7.60;99.90;;;;;;4893374;29;20045;-68
2021/10/27 07:45:33;;;;;;;18.45;11.48;;;7.80;99.90;;;;;;4896720;29;20409;-68
2021/10/27 07:48:01;;;;;;;18.13;11.75;;;8.00;99.90;;;;;;4888481;29;20441;-68
2021/10/27 07:50:30;;;;;;;18.60;11.15;;;8.10;99.90;;;;;;4900867;29;20056;-68
2021/10/27 07:52:59;;;;;;;15.73;10.30;;;8.30;99.90;;;;;;4953323;29;20051;-68
2021/10/27 07:55:28;;;;;;;18.13;11.43;;;8.30;99.90;;;;;;4954712;29;20546;-68
2021/10/27 07:57:56;;;;;;;16.38;10.65;;;8.40;99.90;;;;;;4953911;28;20491;-69
2021/10/27 08:00:24;;;;;;;17.00;10.13;;;8.40;99.90;;;;;;4965720;28;20083;-68
2021/10/27 08:02:54;;;;;;;13.27;9.75;;;8.50;99.90;;;;;;4953256;28;20051;-68
2021/10/27 08:05:23;;;;;;;13.95;10.43;;;8.50;99.90;;;;;;4956831;28;20119;-68
2021/10/27 08:07:51;;;;;;;16.52;10.77;;;8.60;99.90;;;;;;4946967;29;20043;-68
2021/10/27 08:10:21;;;;;;;13.82;9.65;;;8.70;99.90;;;;;;4949312;28;20094;-68
2021/10/27 08:12:49;;;;;;;20.17;13.18;;;8.70;99.90;;;;;;4943588;29;20100;-68
2021/10/27 08:15:20;;;;;;;16.05;10.95;;;8.80;99.90;;;;;;4954424;28;20043;-69
2021/10/27 08:17:48;;;;;;;14.85;10.38;;;8.90;99.90;;;;;;4954622;29;20537;-69
2021/10/27 08:20:18;;;;;;;19.17;11.63;;;8.90;99.90;;;;;;4954676;29;20050;-69
2021/10/27 08:22:48;;;;;;;14.82;10.85;;;9.00;99.90;;;;;;4955097;28;20385;-69
2021/10/27 08:25:20;;;;;;;19.40;12.38;;;9.10;99.90;;;;;;4959974;28;20035;-69
2021/10/27 08:27:48;;;;;;;18.38;12.20;;;9.10;99.90;;;;;;4960267;28;20043;-69
2021/10/27 08:30:18;;;;;;;16.95;11.30;;;9.30;99.90;;;;;;4958687;28;20043;-69
2021/10/27 08:32:52;;;;;;;16.80;10.45;;;9.40;99.90;;;;;;4955014;28;20051;-69
2021/10/27 08:35:19;;;;;;;20.30;12.35;;;9.50;99.90;;;;;;4958267;28;20058;-69
2021/10/27 08:37:49;;;;;;;15.70;11.13;;;9.70;99.90;;;;;;4959724;28;20046;-69
2021/10/27 08:40:19;;;;;;;16.63;11.15;;;9.80;99.90;;;;;;4954162;29;20437;-69
2021/10/27 08:42:47;;;;;;;17.90;11.43;;;10.00;99.90;;;;;;4954234;28;20082;-69
2021/10/27 08:45:15;;;;;;;17.48;11.25;;;10.10;99.90;;;;;;4953637;29;20494;-69
2021/10/27 08:47:48;;;;;;;16.70;11.27;;;10.30;99.90;;;;;;4954365;29;20486;-69
2021/10/27 08:50:17;;;;;;;22.48;11.25;;;10.50;99.90;;;;;;4954559;28;20050;-69
2021/10/27 08:52:45;;;;;;;13.93;10.35;;;10.70;99.90;;;;;;4949220;29;20043;-69
2021/10/27 08:55:14;;;;;;;15.63;10.85;;;10.70;99.90;;;;;;4950295;28;20062;-69
2021/10/27 08:57:47;;;;;;;16.20;11.60;;;10.90;99.90;;;;;;4940978;29;20047;-70
2021/10/27 09:00:21;;;;;;;16.02;10.65;;;11.00;99.90;;;;;;4948935;28;20047;-69
2021/10/27 09:03:25;;;;;;;19.70;11.90;;;11.30;99.90;;;;;;4944958;28;20066;-70
2021/10/27 09:07:00;;;;;;;20.58;12.00;;;11.50;99.90;;;;;;4953123;28;20458;-69
2021/10/27 09:47:56;;;;;;;17.42;11.00;;;13.00;99.90;;;;;;4946470;29;20051;-68
2021/10/27 09:55:52;;;;;;;13.43;9.73;;;13.40;99.90;;;;;;4952574;28;20043;-68
2021/10/27 10:06:48;;;;;;;13.48;9.95;;;14.00;99.90;;;;;;4954108;28;20043;-69
2021/10/27 10:09:19;;;;;;;15.40;10.55;;;14.10;99.90;;;;;;4951678;28;20588;-69
2021/10/27 10:11:49;;;;;;;13.90;9.80;;;14.30;99.90;;;;;;4953367;28;20045;-69
2021/10/27 10:14:19;;;;;;;13.02;9.40;;;14.30;99.90;;;;;;4952045;28;20121;-69
2021/10/27 10:16:49;;;;;;;13.65;9.07;;;14.20;99.90;;;;;;4951071;29;20050;-69
2021/10/27 10:19:20;;;;;;;18.13;10.63;;;14.30;99.90;;;;;;4952071;29;20050;-69
2021/10/27 10:21:51;;;;;;;14.63;9.40;;;14.30;99.90;;;;;;4944154;29;20047;-69
2021/10/27 10:24:22;;;;;;;15.63;9.80;;;14.50;99.90;;;;;;4957976;28;20039;-69
2021/10/27 10:26:52;;;;;;;14.65;10.30;;;14.50;99.90;;;;;;4945005;28;20047;-68
2021/10/27 10:29:49;;;;;;;16.05;10.20;;;14.60;99.90;;;;;;4953206;28;20046;-68
2021/10/27 10:32:29;;;;;;;11.40;8.35;;;14.60;99.90;;;;;;4951010;29;20418;-68
2021/10/27 10:35:10;;;;;;;12.73;8.68;;;14.90;99.90;;;;;;4952541;28;20057;-69
2021/10/27 11:15:09;;;;;;;11.48;7.85;;;16.20;99.90;;;;;;4956040;28;20071;-68
2021/10/27 11:40:38;;;;;;;;;;;21.30;99.90;;;;;;4953859;28;20047;-70
2021/10/27 11:48:20;;;;;;;8.85;5.88;;;21.90;99.90;;;;;;4963655;28;20046;-69
2021/10/27 11:50:48;;;;;;;8.88;4.65;;;21.70;99.90;;;;;;4954294;29;20031;-68
2021/10/27 11:53:27;;;;;;;9.48;4.63;;;21.80;99.90;;;;;;4953525;28;20046;-68
2021/10/27 11:55:56;;;;;;;7.82;3.92;;;21.80;99.90;;;;;;4945858;29;20066;-68
2021/10/27 11:58:41;;;;;;;6.28;3.50;;;21.70;99.90;;;;;;4943710;28;20051;-68
2021/10/27 12:01:19;;;;;;;8.10;3.90;;;21.50;99.90;;;;;;4953249;28;20502;-68
2021/10/27 12:03:47;;;;;;;9.48;3.97;;;21.50;99.90;;;;;;4939755;29;20051;-68
2021/10/27 12:06:41;;;;;;;6.15;3.50;;;22.10;99.90;;;;;;4952094;28;20502;-68
2021/10/27 12:12:03;;;;;;;5.63;2.90;;;23.60;99.90;;;;;;4937981;29;20048;-68
2021/10/27 12:17:31;;;;;;;6.95;3.78;;;22.20;99.90;;;;;;4953328;29;20142;-67
2021/10/27 12:19:58;;;;;;;4.95;2.70;;;21.90;99.90;;;;;;4950832;28;20743;-68
2021/10/27 12:22:26;;;;;;;4.85;2.53;;;22.60;99.90;;;;;;4953940;29;20122;-68
2021/10/27 12:24:56;;;;;;;7.40;4.18;;;22.90;99.90;;;;;;4953197;28;20091;-68
2021/10/27 12:27:30;;;;;;;6.45;3.72;;;21.80;99.90;;;;;;4953633;28;20073;-68
2021/10/27 12:30:00;;;;;;;7.63;3.22;;;21.90;99.90;;;;;;4939338;29;20047;-68
2021/10/27 12:32:29;;;;;;;5.47;3.13;;;22.90;99.90;;;;;;4952602;28;20082;-68
2021/10/27 12:35:05;;;;;;;;;;;23.10;99.90;;;;;;4951948;28;20043;-68
2021/10/27 12:37:48;;;;;;;5.15;3.00;;;23.50;99.90;;;;;;4954183;29;19930;-67
2021/10/27 12:43:01;;;;;;;9.38;5.10;;;25.30;99.90;;;;;;4947949;29;20430;-68
2021/10/27 12:45:35;;;;;;;5.60;2.88;;;27.70;99.90;;;;;;4941005;29;20043;-69
2021/10/27 12:48:09;;;;;;;5.30;2.90;;;28.40;99.90;;;;;;4956662;28;20193;-69
2021/10/27 12:50:49;;;;;;;6.40;2.88;;;28.80;99.90;;;;;;4951486;28;20051;-69
2021/10/27 12:53:36;;;;;;;4.88;2.63;;;29.40;99.30;;;;;;4952132;28;20376;-69
2021/10/27 12:56:13;;;;;;;4.65;2.42;;;30.40;95.50;;;;;;4952764;28;20462;-69
2021/10/27 12:58:44;;;;;;;7.65;2.80;;;30.70;94.10;;;;;;4953476;28;20058;-69
2021/10/27 13:01:16;;;;;;;4.53;2.30;;;31.10;92.40;;;;;;4931104;29;20139;-68
2021/10/27 13:17:30;;;;;;;5.47;2.47;;;31.00;86.00;;;;;;4952711;28;20039;-69
2021/10/27 13:30:28;;;;;;;3.95;2.10;;;33.70;78.40;;;;;;4948317;29;20043;-69
2021/10/27 13:32:57;;;;;;;3.70;1.80;;;34.10;76.50;;;;;;4952938;28;20039;-69
2021/10/27 13:35:27;;;;;;;4.55;1.83;;;34.30;75.40;;;;;;4952756;28;20548;-69
2021/10/27 13:37:55;;;;;;;3.78;1.98;;;34.30;74.90;;;;;;4947294;29;20095;-69
2021/10/27 13:40:24;;;;;;;4.40;2.00;;;34.60;73.40;;;;;;4952956;28;20510;-69
2021/10/27 13:43:01;;;;;;;4.75;2.38;;;34.50;73.40;;;;;;4956619;28;20062;-69
2021/10/27 15:20:54;;;;;;;3.65;1.90;;;22.70;92.10;;;;;;4954564;28;20059;-69
2021/10/27 15:23:35;;;;;;;7.03;4.10;;;22.40;92.60;;;;;;4943320;29;20048;-69
2021/10/27 15:37:18;;;;;;;7.57;3.05;;;19.90;96.50;;;;;;4950754;29;20530;-69
2021/10/27 15:42:59;;;;;;;6.43;2.90;;;18.90;99.20;;;;;;4955135;28;20372;-69
2021/10/27 15:51:05;;;;;;;6.88;3.03;;;17.70;99.90;;;;;;4958032;28;20047;-69
2021/10/27 15:53:34;;;;;;;11.70;6.30;;;17.30;99.90;;;;;;4951766;28;20410;-69
2021/10/27 15:56:03;;;;;;;12.52;7.10;;;16.80;99.90;;;;;;4939738;29;20482;-68
2021/10/27 15:58:30;;;;;;;6.13;3.78;;;16.40;99.90;;;;;;4954983;28;20047;-68
2021/10/27 16:00:58;;;;;;;5.55;3.13;;;16.00;99.90;;;;;;4954932;28;20062;-69
2021/10/27 16:03:25;;;;;;;7.35;3.10;;;15.60;99.90;;;;;;4954726;29;20047;-69
2021/10/27 16:05:55;;;;;;;8.27;3.35;;;15.00;99.90;;;;;;4956941;28;20043;-68
2021/10/27 16:08:26;;;;;;;7.07;3.85;;;14.50;99.90;;;;;;4947281;29;20047;-68
2021/10/27 16:10:54;;;;;;;8.13;4.60;;;14.00;99.90;;;;;;4941325;28;20556;-68
2021/10/27 16:13:21;;;;;;;9.55;5.40;;;13.50;99.90;;;;;;4938408;29;20483;-68
2021/10/27 16:15:55;;;;;;;6.20;3.88;;;13.20;99.90;;;;;;4924357;29;20126;-68
2021/10/27 16:18:25;;;;;;;7.47;4.20;;;12.90;99.90;;;;;;4938549;29;20107;-68
2021/10/27 16:20:52;;;;;;;7.68;3.92;;;12.60;99.90;;;;;;4942640;29;20039;-68
2021/10/27 16:23:20;;;;;;;9.20;5.30;;;12.40;99.90;;;;;;4943595;28;20083;-68
2021/10/27 16:25:49;;;;;;;11.35;7.75;;;12.20;99.90;;;;;;4939405;29;20036;-68
2021/10/27 16:28:18;;;;;;;10.10;5.85;;;12.00;99.90;;;;;;4937854;29;20042;-70
2021/10/27 16:30:50;;;;;;;7.13;4.63;;;11.80;99.90;;;;;;4940531;29;20048;-69
2021/10/27 16:33:21;;;;;;;8.20;5.18;;;11.60;99.90;;;;;;4943455;28;20046;-68
2021/10/27 16:35:50;;;;;;;8.10;4.55;;;11.50;99.90;;;;;;4935326;29;20051;-69
2021/10/27 16:38:18;;;;;;;7.13;4.43;;;11.30;99.90;;;;;;4942268;29;20044;-68
2021/10/27 16:40:47;;;;;;;8.38;4.30;;;11.10;99.90;;;;;;4945267;28;20051;-68
2021/10/27 16:43:15;;;;;;;11.23;6.13;;;11.00;99.90;;;;;;4946098;29;20137;-69
2021/10/27 16:45:42;;;;;;;16.88;6.55;;;10.80;99.90;;;;;;4941765;28;20043;-69
2021/10/27 16:48:10;;;;;;;11.63;5.80;;;10.70;99.90;;;;;;4942496;29;20051;-69
2021/10/27 16:50:37;;;;;;;10.48;5.97;;;10.60;99.90;;;;;;4941666;29;20039;-68
2021/10/27 16:53:05;;;;;;;11.93;6.57;;;10.50;99.90;;;;;;4938880;28;20047;-68
2021/10/27 16:55:35;;;;;;;10.02;6.55;;;10.40;99.90;;;;;;4941590;28;20044;-68
2021/10/27 16:58:04;;;;;;;11.05;7.28;;;10.40;99.90;;;;;;4947900;29;20036;-69
2021/10/27 17:00:33;;;;;;;10.18;6.80;;;10.30;99.90;;;;;;4951805;29;20054;-69
2021/10/27 17:03:00;;;;;;;12.25;7.68;;;10.20;99.90;;;;;;4954282;29;20036;-68
2021/10/27 17:05:28;;;;;;;12.88;7.70;;;10.10;99.90;;;;;;4952737;28;20093;-68
2021/10/27 17:07:55;;;;;;;12.00;8.00;;;10.10;99.90;;;;;;4946237;29;20142;-69
2021/10/27 17:10:23;;;;;;;14.10;8.90;;;10.00;99.90;;;;;;4954177;29;20078;-68
2021/10/27 17:12:51;;;;;;;19.15;10.55;;;10.00;99.90;;;;;;4953864;28;20058;-69
2021/10/27 17:15:18;;;;;;;15.80;11.05;;;9.90;99.90;;;;;;4953749;28;20486;-69
2021/10/27 17:17:46;;;;;;;13.70;10.02;;;9.80;99.90;;;;;;4953851;29;20059;-69
2021/10/27 17:20:17;;;;;;;15.45;10.75;;;9.80;99.90;;;;;;4938130;29;20054;-69
2021/10/27 17:22:47;;;;;;;25.17;15.67;;;9.80;99.90;;;;;;4954030;29;20070;-68
2021/10/27 17:25:16;;;;;;;29.25;17.85;;;9.80;99.90;;;;;;4944778;29;20046;-69
2021/10/27 17:27:46;;;;;;;19.50;12.15;;;9.70;99.90;;;;;;4930212;29;20050;-68
2021/10/27 17:30:15;;;;;;;16.40;12.10;;;9.70;99.90;;;;;;4941721;28;20086;-68
2021/10/27 17:32:43;;;;;;;21.02;12.43;;;9.70;99.90;;;;;;4951503;28;20046;-68
2021/10/27 17:35:14;;;;;;;21.23;11.65;;;9.60;99.90;;;;;;4956877;28;20051;-68
2021/10/27 17:37:43;;;;;;;16.50;11.75;;;9.50;99.90;;;;;;4950784;28;20043;-69
2021/10/27 17:43:01;;;;;;;19.13;12.27;;;9.50;99.90;;;;;;4947015;29;20047;-69
2021/10/27 17:45:40;;;;;;;19.27;12.23;;;9.40;99.90;;;;;;4953430;29;20047;-69
2021/10/27 17:48:16;;;;;;;31.55;19.73;;;9.40;99.90;;;;;;4947251;29;20047;-68
2021/10/27 18:01:06;;;;;;;19.48;12.95;;;9.10;99.90;;;;;;4931525;29;20051;-69
2021/10/27 18:03:35;;;;;;;19.02;13.15;;;9.00;99.90;;;;;;4945684;28;20047;-69
2021/10/27 18:06:08;;;;;;;20.02;14.27;;;9.00;99.90;;;;;;4953984;28;20047;-69